Flight Track Log - Related Links

Times and Time Zones

All times are in EDT time to prevent confusion due to time zone crossing. See the GGN7283 flight status page for this flight to view local times or setup timezone preferences in your user account.

Time Position Orientation Groundspeed Altitude Reporting Facility
EDT Latitude Longitude Course Direction KTS MPH feet Rate Location/Type
Fri 04:49:01 PM 42.7611 -73.8089 320° Northwest 145 167 900  Level Boston Center
Fri 04:50:38 PM 42.8167 -73.8722 320° Northwest 198 228 3,800 1,675 Climbing Boston Center
Fri 04:51:35 PM 42.8303 -73.9322 287° West 208 239 5,200 1,627 Climbing Boston Center
Fri 04:52:36 PM 42.8378 -74.0003 279° West 202 232 7,000 1,785 Climbing Boston Center
Fri 04:53:36 PM 42.8492 -74.0742 282° West 202 232 8,800 1,934 Climbing Boston Center
Fri 04:54:37 PM 42.8628 -74.1481 284° West 197 227 10,900 1,785 Climbing Boston Center
Fri 04:55:37 PM 42.8658 -74.2192 273° West 206 237 12,400 1,576 Climbing Boston Center
Fri 04:56:35 PM 42.8686 -74.3014 273° West 206 237 14,000 1,261 Climbing Boston Center
Fri 04:57:36 PM 42.8736 -74.3808 275° West 220 253 14,900 992 Climbing Boston Center
Fri 04:58:36 PM 42.8742 -74.4744 270° West 230 265 16,000 545 Climbing Boston Center
Fri 04:59:37 PM 42.8767 -74.5594 272° West 242 278 16,000  Level Boston Center
Fri 05:00:36 PM 42.8789 -74.6642 272° West 252 290 16,000  Level Boston Center
Fri 05:01:37 PM 42.8814 -74.7522 272° West 252 290 16,000  Level Boston Center
Fri 05:02:37 PM 42.8853 -74.8572 273° West 252 290 16,000  Level Boston Center
Fri 05:03:38 PM 42.8875 -74.9508 272° West 252 290 16,000  Level Boston Center
Fri 05:04:35 PM 42.8917 -75.0475 273° West 252 290 16,000  Level Boston Center
Fri 05:05:35 PM 42.8936 -75.1411 272° West 252 290 16,000  Level Boston Center
Fri 05:06:36 PM 42.8953 -75.2403 271° West 252 290 16,000  Level Boston Center
Fri 05:07:36 PM 42.8972 -75.3339 272° West 252 290 16,000  Level Boston Center
Fri 05:08:37 PM 42.9011 -75.4278 273° West 252 290 16,000  Level Boston Center
Fri 05:09:37 PM 42.9025 -75.5242 271° West 252 290 16,000  Level Boston Center
Fri 05:10:35 PM 42.9042 -75.6206 271° West 252 290 16,000  Level Boston Center
Fri 05:11:36 PM 42.9078 -75.7144 273° West 252 290 16,000  Level Boston Center
Fri 05:12:36 PM 42.9092 -75.8081 271° West 252 290 16,000  Level Boston Center
Fri 05:13:37 PM 42.9125 -75.9075 273° West 258 297 16,000  Level Boston Center
Fri 05:14:35 PM 42.9136 -76.0011 271° West 252 290 16,000  Level Boston Center
Fri 05:16:21 PM 42.9133 -76.1603 270° West 251 289 16,000  Level Cleveland Center
Fri 05:17:21 PM 42.9169 -76.2564 273° West 251 289 16,000  Level Cleveland Center
Fri 05:18:21 PM 42.9183 -76.3500 271° West 251 289 16,000  Level Cleveland Center
Fri 05:19:21 PM 42.9178 -76.4464 270° West 251 289 16,000  Level Cleveland Center
Fri 05:20:21 PM 42.9189 -76.5428 271° West 251 289 16,000  Level Cleveland Center
Fri 05:21:21 PM 42.9222 -76.6392 273° West 251 289 16,000  Level Cleveland Center
Fri 05:22:21 PM 42.9217 -76.7439 270° West 251 289 16,000 -500 Level Cleveland Center
Fri 05:23:21 PM 42.9250 -76.8431 273° West 251 289 15,000 -1,000 Descending Cleveland Center
Fri 05:24:21 PM 42.9242 -76.9508 269° West 271 312 14,000 -500 Descending Cleveland Center
Fri 05:25:21 PM 42.9253 -77.0531 271° West 271 312 14,000  Level Cleveland Center
Fri 05:26:21 PM 42.9261 -77.1522 271° West 271 312 14,000  Level Cleveland Center
Fri 05:27:21 PM 42.9269 -77.2486 271° West 271 312 14,000  Level Cleveland Center
Fri 05:28:21 PM 42.9275 -77.3450 270° West 271 312 14,000  Level Cleveland Center
Fri 05:29:21 PM 42.9281 -77.4414 270° West 266 306 14,000  Level Cleveland Center
Fri 05:30:21 PM 42.9286 -77.5406 270° West 266 306 14,000  Level Cleveland Center
Fri 05:31:21 PM 42.9311 -77.6369 272° West 266 306 14,000  Level Cleveland Center
Fri 05:32:21 PM 42.9292 -77.7219 268° West 261 300 14,000  Level Cleveland Center
Fri 05:33:21 PM 42.9314 -77.8156 272° West 256 295 14,000  Level Cleveland Center
Fri 05:34:21 PM 42.9294 -77.9092 268° West 251 289 14,000  Level Cleveland Center
Fri 05:35:21 PM 42.9317 -78.0028 272° West 254 292 14,000  Level Cleveland Center
Fri 05:36:21 PM 42.9317 -78.0964 270° West 249 287 14,000  Level Cleveland Center
Fri 05:37:21 PM 42.9314 -78.1872 270° West 249 287 14,000  Level Cleveland Center
Fri 05:38:21 PM 42.9311 -78.2806 270° West 249 287 14,000  Level Cleveland Center
Fri 05:39:21 PM 42.9308 -78.3714 270° West 254 292 14,000  Level Cleveland Center
Fri 05:40:21 PM 42.9306 -78.4650 270° West 254 292 14,000  Level Cleveland Center
Fri 05:41:21 PM 42.9303 -78.5586 270° West 249 287 14,000  Level Cleveland Center
Fri 05:42:21 PM 42.9317 -78.6522 271° West 249 287 14,000 -150 Level Cleveland Center
Fri 05:43:21 PM 42.9683 -78.7247 305° West 235 270 13,700 -850 Descending Cleveland Center
Fri 05:44:21 PM 43.0092 -78.7975 308° West 235 270 12,300 -1,110 Descending Cleveland Center
Fri 05:45:47 PM 43.0667 -78.9000 308° West 260 299 11,000 -534 Descending Toronto Center
Fri 05:46:47 PM 43.1167 -78.9667 316° Northwest 250 288 11,000  Level Toronto Center
Fri 05:47:47 PM 43.1500 -79.0667 295° West 250 288 11,000 -200 Level Toronto Center
Fri 05:48:47 PM 43.1833 -79.1333 304° West 250 288 10,600 -700 Descending Toronto Center
Fri 05:49:47 PM 43.2333 -79.2167 309° West 260 299 9,600 -800 Descending Toronto Center
Fri 05:50:47 PM 43.2667 -79.2833 304° West 270 311 9,000 -350 Descending Toronto Center
Fri 05:51:47 PM 43.3333 -79.3500 324° Northwest 260 299 8,900 -450 Descending Toronto Center
Fri 05:52:47 PM 43.4000 -79.3833 340° North 260 299 8,100 -450 Descending Toronto Center
Fri 05:53:47 PM 43.4667 -79.4000 350° North 260 299 8,000 -350 Descending Toronto Center
Fri 05:54:47 PM 43.5167 -79.4667 316° Northwest 240 276 7,400 -900 Descending Toronto Center
Fri 05:55:47 PM 43.5333 -79.5333 289° West 240 276 6,200 -1,250 Descending Toronto Center
Fri 05:56:47 PM 43.5333 -79.6333 270° West 240 276 4,900 -1,350 Descending Toronto Center
Fri 05:57:47 PM 43.5333 -79.7167 270° West 220 253 3,500 -1,050 Descending Toronto Center
Fri 05:58:47 PM 43.5667 -79.7000 20° North 180 207 2,800 -850 Descending Toronto Center
Fri 05:59:47 PM 43.6000 -79.6500 47° Northeast 160 184 1,800 -850 Descending Toronto Center
Fri 06:00:47 PM 43.6333 -79.6333 20° North 140 161 1,100 -650 Descending Toronto Center
Fri 06:01:47 PM 43.6500 -79.5833 65° Northeast 130 150 500 3,399 Descending Toronto Center
Fri 06:11:56 PM 47.7167 -87.5667 309° West 480 552 39,000 3,793 Climbing Toronto Center

Login

Don't have an account? Register now (free) for customized features, flight alerts, and more!